Time;durP1;ratioP1;P1;durP2;ratioP2;P2;SDS_P1;SDS_P2;PMS_P1;PMS_P2;Temp;Humidity;BMP_temperature;BMP_pressure;BME280_temperature;BME280_humidity;BME280_pressure;Samples;Min_cycle;Max_cycle;Signal;HPM_P1;HPM_P2
2023/05/30 00:01:22;;;;;;;0.85;0.60;;;;;;;;;;5024513;28;20099;-75
2023/05/30 00:03:48;;;;;;;0.50;0.50;;;;;;;;;;5019751;28;20028;-75
2023/05/30 00:06:15;;;;;;;3.40;0.52;;;;;;;;;;5018831;28;20143;-75
2023/05/30 00:08:42;;;;;;;1.95;0.60;;;;;;;;;;5024577;28;20103;-75
2023/05/30 00:11:08;;;;;;;0.60;0.60;;;;;;;;;;5042400;28;20033;-75
2023/05/30 00:13:34;;;;;;;0.57;0.57;;;;;;;;;;5038622;28;20059;-75
2023/05/30 00:16:03;;;;;;;1.15;0.70;;;;;;;;;;5043017;28;20488;-75
2023/05/30 00:18:35;;;;;;;0.70;0.60;;;;;;;;;;5024990;28;20075;-76
2023/05/30 00:21:05;;;;;;;0.50;0.50;;;;;;;;;;5016802;28;20117;-76
2023/05/30 00:23:31;;;;;;;0.75;0.52;;;;;;;;;;5019049;28;20100;-75
2023/05/30 00:25:57;;;;;;;0.73;0.63;;;;;;;;;;5025128;28;20029;-75
2023/05/30 00:28:24;;;;;;;0.50;0.50;;;;;;;;;;5045381;28;20025;-76
2023/05/30 00:30:50;;;;;;;0.50;0.50;;;;;;;;;;5040933;28;20131;-75
2023/05/30 00:33:16;;;;;;;0.85;0.40;;;;;;;;;;5050474;28;20084;-76
2023/05/30 00:35:42;;;;;;;0.82;0.82;;;;;;;;;;5040483;28;20037;-75
2023/05/30 00:38:08;;;;;;;0.55;0.30;;;;;;;;;;5031554;28;20029;-76
2023/05/30 00:40:34;;;;;;;0.90;0.65;;;;;;;;;;5048269;28;20442;-75
2023/05/30 00:43:00;;;;;;;0.55;0.55;;;;;;;;;;5031561;28;20029;-76
2023/05/30 00:45:26;;;;;;;0.80;0.60;;;;;;;;;;5031807;28;20399;-75
2023/05/30 00:47:55;;;;;;;0.70;0.70;;;;;;;;;;5042877;28;20032;-74
2023/05/30 00:50:26;;;;;;;6.18;0.40;;;;;;;;;;5029221;28;20020;-76
2023/05/30 00:52:51;;;;;;;3.45;0.50;;;;;;;;;;5043564;28;20849;-76
2023/05/30 00:55:17;;;;;;;0.35;0.35;;;;;;;;;;5039531;28;20029;-76
2023/05/30 00:57:44;;;;;;;0.50;0.50;;;;;;;;;;5044550;28;20630;-75
2023/05/30 01:00:14;;;;;;;1.15;0.65;;;;;;;;;;5044959;28;20039;-75
2023/05/30 01:02:40;;;;;;;0.35;0.35;;;;;;;;;;5029106;28;20033;-75
2023/05/30 01:05:07;;;;;;;1.20;0.70;;;;;;;;;;5040176;28;20128;-76
2023/05/30 01:07:34;;;;;;;0.80;0.50;;;;;;;;;;5043901;28;20056;-75
2023/05/30 01:10:00;;;;;;;0.60;0.60;;;;;;;;;;5042295;28;20020;-75
2023/05/30 01:12:34;;;;;;;1.10;0.50;;;;;;;;;;5045238;28;20115;-75
2023/05/30 01:15:14;;;;;;;0.88;0.50;;;;;;;;;;5033310;28;20111;-75
2023/05/30 01:17:44;;;;;;;0.47;0.43;;;;;;;;;;5043407;28;20026;-75
2023/05/30 01:20:17;;;;;;;0.50;0.50;;;;;;;;;;5030935;28;20178;-75
2023/05/30 01:22:55;;;;;;;0.77;0.70;;;;;;;;;;5051306;28;20031;-75
2023/05/30 01:25:38;;;;;;;0.73;0.60;;;;;;;;;;5047411;28;20032;-75
2023/05/30 01:28:14;;;;;;;1.20;0.40;;;;;;;;;;5051440;28;20552;-76
2023/05/30 01:30:45;;;;;;;0.52;0.52;;;;;;;;;;5044752;28;20025;-76
2023/05/30 01:33:13;;;;;;;0.47;0.47;;;;;;;;;;5042472;28;20549;-76
2023/05/30 01:35:39;;;;;;;1.33;0.60;;;;;;;;;;5044563;28;20037;-76
2023/05/30 01:38:05;;;;;;;0.55;0.50;;;;;;;;;;5039527;28;20068;-76
2023/05/30 01:40:34;;;;;;;0.93;0.47;;;;;;;;;;5043385;28;20018;-76
2023/05/30 01:43:07;;;;;;;0.38;0.35;;;;;;;;;;5039471;28;20443;-75
2023/05/30 01:45:40;;;;;;;0.95;0.50;;;;;;;;;;5044324;28;20024;-75
2023/05/30 01:48:24;;;;;;;0.88;0.63;;;;;;;;;;5035097;28;20021;-76
2023/05/30 01:50:51;;;;;;;0.40;0.40;;;;;;;;;;5038581;28;20025;-76
2023/05/30 01:53:22;;;;;;;0.68;0.50;;;;;;;;;;5040253;28;20053;-76
2023/05/30 01:55:51;;;;;;;0.40;0.40;;;;;;;;;;5044853;28;20495;-76
2023/05/30 01:58:19;;;;;;;1.60;0.63;;;;;;;;;;5040919;28;20025;-76
2023/05/30 02:00:49;;;;;;;1.45;0.60;;;;;;;;;;5040378;28;20029;-76
2023/05/30 02:03:15;;;;;;;1.45;1.15;;;;;;;;;;5046233;28;20032;-76
2023/05/30 02:05:41;;;;;;;0.88;0.47;;;;;;;;;;5043636;28;20064;-76
2023/05/30 02:08:07;;;;;;;1.25;0.70;;;;;;;;;;5043980;28;20017;-76
2023/05/30 02:10:34;;;;;;;0.52;0.45;;;;;;;;;;5042870;28;20584;-76
2023/05/30 02:13:00;;;;;;;0.57;0.45;;;;;;;;;;5046557;28;20459;-76
2023/05/30 02:15:26;;;;;;;0.65;0.35;;;;;;;;;;5045829;28;20025;-76
2023/05/30 02:17:52;;;;;;;1.08;0.50;;;;;;;;;;5042164;28;20082;-76
2023/05/30 02:20:18;;;;;;;0.85;0.57;;;;;;;;;;5053144;28;20091;-76
2023/05/30 02:22:44;;;;;;;0.40;0.40;;;;;;;;;;5046968;28;20481;-76
2023/05/30 02:25:10;;;;;;;0.63;0.55;;;;;;;;;;5040521;28;20072;-76
2023/05/30 02:27:36;;;;;;;0.65;0.40;;;;;;;;;;5048512;28;20104;-76
2023/05/30 02:30:02;;;;;;;0.88;0.57;;;;;;;;;;5039224;28;20554;-76
2023/05/30 02:32:28;;;;;;;1.17;0.52;;;;;;;;;;5047140;28;20115;-76
2023/05/30 02:34:55;;;;;;;0.93;0.70;;;;;;;;;;5041541;28;20384;-76
2023/05/30 02:37:21;;;;;;;1.25;0.77;;;;;;;;;;5042562;28;20025;-76
2023/05/30 02:39:47;;;;;;;0.60;0.50;;;;;;;;;;5039504;28;20098;-76
2023/05/30 02:42:13;;;;;;;0.50;0.43;;;;;;;;;;5042674;28;20029;-75
2023/05/30 02:44:39;;;;;;;0.60;0.60;;;;;;;;;;5048219;28;20483;-76
2023/05/30 02:47:05;;;;;;;1.30;0.50;;;;;;;;;;5037109;28;20032;-75
2023/05/30 02:49:31;;;;;;;0.40;0.40;;;;;;;;;;5044332;28;20048;-76
2023/05/30 02:51:57;;;;;;;0.22;0.22;;;;;;;;;;5032391;28;20460;-75
2023/05/30 02:54:23;;;;;;;0.73;0.38;;;;;;;;;;5045386;28;20024;-76
2023/05/30 02:56:49;;;;;;;1.83;0.60;;;;;;;;;;5045042;28;20869;-75
2023/05/30 02:59:15;;;;;;;0.95;0.50;;;;;;;;;;5044075;28;20025;-76
2023/05/30 03:01:41;;;;;;;0.63;0.60;;;;;;;;;;5044560;28;20025;-74
2023/05/30 03:04:07;;;;;;;2.10;0.50;;;;;;;;;;5038117;28;20022;-75
2023/05/30 03:06:37;;;;;;;0.52;0.30;;;;;;;;;;5047568;28;20494;-76
2023/05/30 03:09:04;;;;;;;0.73;0.50;;;;;;;;;;5043810;28;20108;-76
2023/05/30 03:11:30;;;;;;;0.93;0.50;;;;;;;;;;5037116;28;20029;-75
2023/05/30 03:13:56;;;;;;;1.00;0.40;;;;;;;;;;5043228;28;20041;-76
2023/05/30 03:16:21;;;;;;;2.30;0.82;;;;;;;;;;5039995;28;20036;-76
2023/05/30 03:18:49;;;;;;;0.52;0.52;;;;;;;;;;5035657;28;20488;-75
2023/05/30 03:21:15;;;;;;;0.90;0.50;;;;;;;;;;5039689;28;20025;-76
2023/05/30 03:23:41;;;;;;;0.70;0.45;;;;;;;;;;5032313;28;20484;-76
2023/05/30 03:26:07;;;;;;;4.13;0.95;;;;;;;;;;5032586;28;20033;-75
2023/05/30 03:28:33;;;;;;;2.60;1.00;;;;;;;;;;5035599;28;20045;-74
2023/05/30 03:31:00;;;;;;;0.40;0.35;;;;;;;;;;5044341;28;20039;-74
2023/05/30 03:33:28;;;;;;;1.35;0.68;;;;;;;;;;5026964;28;20029;-74
2023/05/30 03:35:54;;;;;;;0.57;0.40;;;;;;;;;;5046676;28;20412;-72
2023/05/30 03:38:29;;;;;;;0.60;0.60;;;;;;;;;;5051532;28;20025;-74
2023/05/30 03:41:01;;;;;;;0.40;0.40;;;;;;;;;;5036213;28;20043;-76
2023/05/30 03:43:26;;;;;;;0.50;0.50;;;;;;;;;;5034039;28;20060;-76
2023/05/30 03:45:52;;;;;;;0.65;0.50;;;;;;;;;;5045355;28;20053;-75
2023/05/30 03:48:18;;;;;;;0.63;0.40;;;;;;;;;;5044709;28;20021;-75
2023/05/30 03:50:45;;;;;;;1.85;0.60;;;;;;;;;;5044947;28;20459;-75
2023/05/30 03:53:13;;;;;;;0.65;0.40;;;;;;;;;;5040679;28;20047;-75
2023/05/30 03:55:40;;;;;;;0.77;0.60;;;;;;;;;;5043922;28;20033;-74
2023/05/30 03:58:06;;;;;;;0.52;0.43;;;;;;;;;;5035169;28;20488;-75
2023/05/30 04:00:32;;;;;;;0.40;0.40;;;;;;;;;;5024677;28;20690;-75
2023/05/30 04:02:59;;;;;;;0.85;0.60;;;;;;;;;;5039911;28;20039;-75
2023/05/30 04:05:25;;;;;;;0.60;0.60;;;;;;;;;;5046579;28;20527;-75
2023/05/30 04:07:52;;;;;;;0.32;0.30;;;;;;;;;;5040618;28;20547;-76
2023/05/30 04:10:18;;;;;;;0.73;0.70;;;;;;;;;;5027151;28;20489;-76
2023/05/30 04:12:44;;;;;;;1.02;0.40;;;;;;;;;;5042250;28;20369;-76
2023/05/30 04:15:10;;;;;;;1.52;0.70;;;;;;;;;;5042072;28;20056;-76
2023/05/30 04:17:36;;;;;;;1.73;0.57;;;;;;;;;;5046262;28;20040;-76
2023/05/30 04:20:04;;;;;;;0.60;0.52;;;;;;;;;;5043972;28;20041;-76
2023/05/30 04:22:33;;;;;;;1.88;0.45;;;;;;;;;;5047953;28;20281;-76
2023/05/30 04:24:59;;;;;;;1.05;0.55;;;;;;;;;;5048314;28;20017;-76
2023/05/30 04:27:26;;;;;;;0.40;0.30;;;;;;;;;;5046998;28;20058;-75
2023/05/30 04:29:55;;;;;;;1.15;0.50;;;;;;;;;;5041330;28;20039;-75
2023/05/30 04:32:21;;;;;;;0.80;0.38;;;;;;;;;;5032836;28;20029;-75
2023/05/30 04:34:48;;;;;;;0.98;0.40;;;;;;;;;;5049419;28;20384;-76
2023/05/30 04:37:18;;;;;;;0.90;0.57;;;;;;;;;;5036578;28;20032;-76
2023/05/30 04:39:45;;;;;;;1.63;0.50;;;;;;;;;;5043871;28;20033;-75
2023/05/30 04:42:17;;;;;;;1.33;0.55;;;;;;;;;;5040068;28;20037;-74
2023/05/30 04:44:51;;;;;;;0.50;0.50;;;;;;;;;;5049594;28;20051;-74
2023/05/30 04:47:28;;;;;;;0.60;0.60;;;;;;;;;;5047792;28;20025;-74
2023/05/30 04:49:54;;;;;;;0.30;0.30;;;;;;;;;;5043657;28;20025;-75
2023/05/30 04:52:24;;;;;;;0.45;0.40;;;;;;;;;;5051567;28;20405;-75
2023/05/30 04:54:50;;;;;;;0.38;0.38;;;;;;;;;;5041307;28;20037;-75
2023/05/30 04:57:19;;;;;;;0.40;0.40;;;;;;;;;;5048779;28;20075;-75
2023/05/30 04:59:46;;;;;;;0.30;0.30;;;;;;;;;;5048750;28;20044;-75
2023/05/30 05:02:16;;;;;;;0.98;0.60;;;;;;;;;;5049358;28;20087;-75
2023/05/30 05:04:42;;;;;;;0.40;0.40;;;;;;;;;;5046213;28;20049;-75
2023/05/30 05:07:08;;;;;;;0.50;0.40;;;;;;;;;;5048420;28;20025;-74
2023/05/30 05:09:34;;;;;;;0.40;0.40;;;;;;;;;;5045599;28;20202;-75
2023/05/30 05:12:06;;;;;;;4.22;0.60;;;;;;;;;;5049796;28;20518;-75
2023/05/30 05:14:32;;;;;;;2.15;0.60;;;;;;;;;;5037729;28;20041;-75
2023/05/30 05:16:58;;;;;;;0.65;0.50;;;;;;;;;;5048622;28;20108;-75
2023/05/30 05:19:24;;;;;;;0.73;0.70;;;;;;;;;;5041640;28;20067;-74
2023/05/30 05:21:50;;;;;;;4.07;0.70;;;;;;;;;;5045919;28;20028;-74
2023/05/30 05:24:25;;;;;;;0.50;0.50;;;;;;;;;;5042773;28;20049;-74
2023/05/30 05:26:54;;;;;;;0.68;0.50;;;;;;;;;;5038862;28;20056;-75
2023/05/30 05:29:21;;;;;;;1.00;0.52;;;;;;;;;;5044406;28;20028;-74
2023/05/30 05:31:47;;;;;;;0.32;0.32;;;;;;;;;;5048571;28;20403;-75
2023/05/30 05:34:13;;;;;;;0.60;0.60;;;;;;;;;;5038715;28;20040;-74
2023/05/30 05:36:40;;;;;;;0.45;0.40;;;;;;;;;;5048963;28;20027;-75
2023/05/30 05:39:07;;;;;;;0.40;0.40;;;;;;;;;;5029499;28;20048;-74
2023/05/30 05:41:41;;;;;;;1.02;0.57;;;;;;;;;;5032709;28;20029;-74
2023/05/30 05:44:10;;;;;;;0.70;0.70;;;;;;;;;;5040877;28;20048;-74
2023/05/30 05:46:36;;;;;;;1.17;0.60;;;;;;;;;;5048323;28;20415;-74
2023/05/30 05:49:05;;;;;;;0.50;0.40;;;;;;;;;;5034110;28;20381;-74
2023/05/30 05:51:35;;;;;;;0.93;0.50;;;;;;;;;;5037745;28;20064;-75
2023/05/30 05:54:01;;;;;;;0.32;0.32;;;;;;;;;;5050033;28;20506;-74
2023/05/30 05:56:27;;;;;;;0.40;0.40;;;;;;;;;;5042778;28;20021;-74
2023/05/30 05:58:54;;;;;;;1.77;0.60;;;;;;;;;;5039332;28;20072;-75
2023/05/30 06:01:20;;;;;;;0.40;0.40;;;;;;;;;;5049532;28;20429;-74
2023/05/30 06:03:46;;;;;;;0.95;0.40;;;;;;;;;;5045129;28;20017;-74
2023/05/30 06:06:12;;;;;;;0.40;0.40;;;;;;;;;;5046758;28;20053;-73
2023/05/30 06:08:41;;;;;;;1.35;0.40;;;;;;;;;;5046123;28;20559;-74
2023/05/30 06:11:16;;;;;;;0.52;0.40;;;;;;;;;;5046016;28;20025;-75
2023/05/30 06:13:42;;;;;;;0.60;0.60;;;;;;;;;;5034955;28;20057;-75
2023/05/30 06:16:08;;;;;;;0.20;0.20;;;;;;;;;;5027885;28;20025;-75
2023/05/30 06:18:34;;;;;;;0.82;0.57;;;;;;;;;;5038070;28;20021;-75
2023/05/30 06:21:00;;;;;;;0.40;0.40;;;;;;;;;;5047301;28;20124;-74
2023/05/30 06:23:27;;;;;;;0.30;0.30;;;;;;;;;;5048678;28;20075;-75
2023/05/30 06:25:56;;;;;;;0.90;0.32;;;;;;;;;;5040712;28;20076;-74
2023/05/30 06:28:25;;;;;;;0.50;0.30;;;;;;;;;;5038349;28;20416;-74
2023/05/30 06:30:51;;;;;;;0.95;0.60;;;;;;;;;;5047753;28;20123;-74
2023/05/30 06:33:17;;;;;;;0.80;0.50;;;;;;;;;;5033104;28;20045;-74
2023/05/30 06:35:44;;;;;;;0.40;0.32;;;;;;;;;;5045538;28;20540;-75
2023/05/30 06:38:10;;;;;;;0.52;0.40;;;;;;;;;;5048479;28;20478;-74
2023/05/30 06:40:36;;;;;;;0.68;0.47;;;;;;;;;;5036408;28;20030;-74
2023/05/30 06:43:04;;;;;;;0.60;0.47;;;;;;;;;;5060395;28;20032;-74
2023/05/30 06:45:31;;;;;;;0.73;0.60;;;;;;;;;;5067862;28;20052;-74
2023/05/30 06:47:57;;;;;;;0.30;0.30;;;;;;;;;;5050256;28;20059;-74
2023/05/30 06:50:23;;;;;;;0.93;0.50;;;;;;;;;;5037837;28;20029;-73
2023/05/30 06:52:49;;;;;;;2.60;0.40;;;;;;;;;;5038762;28;20697;-73
2023/05/30 06:55:16;;;;;;;0.85;0.68;;;;;;;;;;5045645;28;20033;-74
2023/05/30 06:57:48;;;;;;;4.15;1.38;;;;;;;;;;5047527;28;20025;-75
2023/05/30 07:00:15;;;;;;;3.42;0.50;;;;;;;;;;5046594;28;20029;-75
2023/05/30 07:02:44;;;;;;;0.50;0.50;;;;;;;;;;5046734;28;20576;-73
2023/05/30 07:05:13;;;;;;;1.98;0.60;;;;;;;;;;5044803;28;20254;-73
2023/05/30 07:07:39;;;;;;;0.57;0.50;;;;;;;;;;5052824;28;20515;-72
2023/05/30 07:10:07;;;;;;;3.15;0.60;;;;;;;;;;5048390;28;20033;-75
2023/05/30 07:12:33;;;;;;;0.57;0.52;;;;;;;;;;5042260;28;20029;-76
2023/05/30 07:14:59;;;;;;;0.57;0.30;;;;;;;;;;5037126;28;20043;-76
2023/05/30 07:17:25;;;;;;;0.50;0.50;;;;;;;;;;5041879;28;20029;-75
2023/05/30 07:19:51;;;;;;;0.50;0.50;;;;;;;;;;5041411;28;20432;-76
2023/05/30 07:22:17;;;;;;;0.50;0.50;;;;;;;;;;5042923;28;20039;-76
2023/05/30 07:24:43;;;;;;;0.90;0.52;;;;;;;;;;5042376;28;20548;-76
2023/05/30 07:27:09;;;;;;;0.57;0.57;;;;;;;;;;5044365;28;20506;-76
2023/05/30 07:29:34;;;;;;;0.75;0.50;;;;;;;;;;5046774;28;20021;-76
2023/05/30 07:32:00;;;;;;;1.17;0.52;;;;;;;;;;5045216;28;20017;-75
2023/05/30 07:34:26;;;;;;;0.57;0.50;;;;;;;;;;5043973;28;20703;-76
2023/05/30 07:36:52;;;;;;;2.67;0.90;;;;;;;;;;5040295;28;20068;-76
2023/05/30 07:39:19;;;;;;;0.50;0.50;;;;;;;;;;5044195;28;20029;-76
2023/05/30 07:41:45;;;;;;;0.68;0.50;;;;;;;;;;5038944;28;20037;-76
2023/05/30 07:44:11;;;;;;;0.35;0.28;;;;;;;;;;5048045;28;20032;-76
2023/05/30 07:46:37;;;;;;;0.40;0.40;;;;;;;;;;5044674;28;20032;-76
2023/05/30 07:49:03;;;;;;;0.40;0.40;;;;;;;;;;5044771;28;20044;-76
2023/05/30 07:51:30;;;;;;;1.38;0.47;;;;;;;;;;5043516;28;20029;-76
2023/05/30 07:53:56;;;;;;;0.43;0.43;;;;;;;;;;5047558;28;20032;-78
2023/05/30 07:56:22;;;;;;;1.35;0.43;;;;;;;;;;5038230;28;21231;-78
2023/05/30 07:58:48;;;;;;;0.80;0.52;;;;;;;;;;5044753;28;20025;-78
2023/05/30 08:01:14;;;;;;;1.88;0.40;;;;;;;;;;5042714;28;20032;-79
2023/05/30 08:03:40;;;;;;;4.78;0.38;;;;;;;;;;5043973;28;20040;-79
2023/05/30 08:06:09;;;;;;;0.40;0.40;;;;;;;;;;5046548;28;20373;-79
2023/05/30 08:08:35;;;;;;;0.93;0.47;;;;;;;;;;5045462;28;20017;-78
2023/05/30 08:11:01;;;;;;;0.40;0.40;;;;;;;;;;5044273;28;20033;-77
2023/05/30 08:13:27;;;;;;;2.75;0.60;;;;;;;;;;5039533;28;20090;-78
2023/05/30 08:15:53;;;;;;;2.67;0.73;;;;;;;;;;5045797;28;20029;-77
2023/05/30 08:18:21;;;;;;;0.20;0.20;;;;;;;;;;5043242;28;20063;-77
2023/05/30 08:20:47;;;;;;;1.13;0.70;;;;;;;;;;5046384;28;20549;-76
2023/05/30 08:23:13;;;;;;;0.98;0.45;;;;;;;;;;5043102;28;20118;-77
2023/05/30 08:25:42;;;;;;;0.38;0.38;;;;;;;;;;5045818;28;20028;-77
2023/05/30 08:28:15;;;;;;;1.08;0.77;;;;;;;;;;5039734;28;20052;-77
2023/05/30 08:30:44;;;;;;;1.40;0.70;;;;;;;;;;5041313;28;20041;-78
2023/05/30 08:33:12;;;;;;;0.65;0.50;;;;;;;;;;5043268;28;20357;-76
2023/05/30 08:35:38;;;;;;;4.60;0.77;;;;;;;;;;5041174;28;20191;-76
2023/05/30 08:38:04;;;;;;;1.13;0.50;;;;;;;;;;5044755;28;20020;-76
2023/05/30 08:40:51;;;;;;;0.63;0.55;;;;;;;;;;5039463;28;20022;-81
2023/05/30 08:43:18;;;;;;;0.52;0.52;;;;;;;;;;5033321;28;20033;-78
2023/05/30 08:45:44;;;;;;;1.55;0.95;;;;;;;;;;5046039;28;20499;-80
2023/05/30 08:48:12;;;;;;;2.85;0.73;;;;;;;;;;5042293;28;20487;-79
2023/05/30 08:50:40;;;;;;;1.63;0.57;;;;;;;;;;5037660;28;20491;-77
2023/05/30 08:53:09;;;;;;;3.80;0.57;;;;;;;;;;5032366;28;20021;-76
2023/05/30 08:56:13;;;;;;;1.35;0.60;;;;;;;;;;5043990;28;20039;-77
2023/05/30 08:58:44;;;;;;;1.10;0.45;;;;;;;;;;5025494;28;20037;-76
2023/05/30 09:01:15;;;;;;;3.20;0.73;;;;;;;;;;5036953;28;20025;-77
2023/05/30 09:03:42;;;;;;;;;;;;;;;;;;5031973;28;20036;-77
2023/05/30 09:06:08;;;;;;;1.67;0.63;;;;;;;;;;5036753;28;19932;-77
2023/05/30 09:08:36;;;;;;;2.25;0.63;;;;;;;;;;5039640;28;20021;-76
2023/05/30 09:11:05;;;;;;;1.15;0.52;;;;;;;;;;5032377;28;20033;-78
2023/05/30 09:13:31;;;;;;;1.60;0.73;;;;;;;;;;5038500;28;20033;-77
2023/05/30 09:15:57;;;;;;;1.15;0.60;;;;;;;;;;5040857;28;20033;-77
2023/05/30 09:18:23;;;;;;;1.35;1.05;;;;;;;;;;5041604;28;20028;-80
2023/05/30 09:20:49;;;;;;;0.40;0.40;;;;;;;;;;5047032;28;20025;-78
2023/05/30 09:23:15;;;;;;;1.75;0.68;;;;;;;;;;5041487;28;20657;-77
2023/05/30 09:25:54;;;;;;;2.03;0.68;;;;;;;;;;5042703;28;20025;-79
2023/05/30 09:31:16;;;;;;;1.90;0.80;;;;;;;;;;5032670;28;20045;-77
2023/05/30 09:33:46;;;;;;;0.80;0.60;;;;;;;;;;5045140;28;20040;-77
2023/05/30 09:36:22;;;;;;;1.75;0.63;;;;;;;;;;5044350;28;20483;-77
2023/05/30 09:38:54;;;;;;;0.70;0.70;;;;;;;;;;5045092;28;20040;-75
2023/05/30 09:41:20;;;;;;;2.20;0.70;;;;;;;;;;5045573;28;20393;-78
2023/05/30 09:43:52;;;;;;;1.27;0.75;;;;;;;;;;5045386;28;20740;-76
2023/05/30 09:46:21;;;;;;;5.75;0.90;;;;;;;;;;5039933;28;20029;-76
2023/05/30 09:48:47;;;;;;;1.73;0.75;;;;;;;;;;5035858;28;20098;-77
2023/05/30 09:51:15;;;;;;;1.08;0.80;;;;;;;;;;5035880;28;20088;-76
2023/05/30 09:53:54;;;;;;;0.60;0.60;;;;;;;;;;5044790;28;20036;-81
2023/05/30 09:56:21;;;;;;;2.03;0.50;;;;;;;;;;5037034;28;20439;-75
2023/05/30 09:58:47;;;;;;;0.82;0.57;;;;;;;;;;5042748;28;20446;-73
2023/05/30 10:01:32;;;;;;;1.20;0.73;;;;;;;;;;5041177;28;20036;-74
2023/05/30 10:03:58;;;;;;;0.77;0.77;;;;;;;;;;5027754;28;20212;-74
2023/05/30 10:06:24;;;;;;;0.50;0.50;;;;;;;;;;5046072;28;20583;-76
2023/05/30 10:08:51;;;;;;;2.47;0.82;;;;;;;;;;5037573;28;20261;-74
2023/05/30 10:11:17;;;;;;;1.98;0.60;;;;;;;;;;5046717;28;20021;-73
2023/05/30 10:13:43;;;;;;;0.60;0.55;;;;;;;;;;5034545;28;20503;-73
2023/05/30 10:16:14;;;;;;;1.92;0.88;;;;;;;;;;5046777;28;20052;-74
2023/05/30 10:18:44;;;;;;;0.70;0.60;;;;;;;;;;5034479;28;20395;-73
2023/05/30 10:21:12;;;;;;;0.63;0.63;;;;;;;;;;5044204;28;20302;-73
2023/05/30 10:23:39;;;;;;;0.65;0.60;;;;;;;;;;5033934;28;20025;-73
2023/05/30 10:26:06;;;;;;;0.85;0.82;;;;;;;;;;5039644;28;20041;-73
2023/05/30 10:28:34;;;;;;;5.55;0.90;;;;;;;;;;5043144;28;20025;-75
2023/05/30 10:31:02;;;;;;;1.80;0.90;;;;;;;;;;5035151;28;20036;-73
2023/05/30 10:33:29;;;;;;;4.03;1.20;;;;;;;;;;5051881;28;20029;-74
2023/05/30 10:35:55;;;;;;;1.13;0.73;;;;;;;;;;5033992;28;20115;-74
2023/05/30 10:38:22;;;;;;;1.63;0.70;;;;;;;;;;5034361;28;20026;-74
2023/05/30 10:41:03;;;;;;;4.80;1.35;;;;;;;;;;5051559;28;20074;-74
2023/05/30 10:43:48;;;;;;;4.15;0.68;;;;;;;;;;5037678;28;20029;-73
2023/05/30 10:46:31;;;;;;;1.85;0.88;;;;;;;;;;5037703;28;20025;-74
2023/05/30 10:49:04;;;;;;;1.98;0.98;;;;;;;;;;5050510;28;20051;-75
2023/05/30 10:51:30;;;;;;;1.65;1.00;;;;;;;;;;5049538;28;20029;-76
2023/05/30 10:54:00;;;;;;;2.10;1.23;;;;;;;;;;5041528;28;20030;-76
2023/05/30 10:56:35;;;;;;;1.05;0.70;;;;;;;;;;5036094;28;20472;-77
2023/05/30 10:59:02;;;;;;;2.03;0.90;;;;;;;;;;5043739;28;20043;-75
2023/05/30 11:01:34;;;;;;;2.05;1.02;;;;;;;;;;5047612;28;20036;-75
2023/05/30 11:04:00;;;;;;;4.22;0.93;;;;;;;;;;5042028;28;20021;-77
2023/05/30 11:06:26;;;;;;;2.38;0.52;;;;;;;;;;5040813;28;20107;-75
2023/05/30 11:08:53;;;;;;;2.05;0.90;;;;;;;;;;5039084;28;20439;-75
2023/05/30 11:11:19;;;;;;;0.75;0.75;;;;;;;;;;5047595;28;20029;-75
2023/05/30 11:13:50;;;;;;;4.97;2.00;;;;;;;;;;5053278;28;20493;-75
2023/05/30 11:16:23;;;;;;;4.90;1.40;;;;;;;;;;5047466;28;20021;-74
2023/05/30 11:18:50;;;;;;;5.88;1.20;;;;;;;;;;5047590;28;20033;-74
2023/05/30 11:21:16;;;;;;;2.13;1.15;;;;;;;;;;5048457;28;20085;-75
2023/05/30 11:24:00;;;;;;;1.88;1.10;;;;;;;;;;5035221;28;20520;-74
2023/05/30 11:26:45;;;;;;;2.13;1.00;;;;;;;;;;5046351;28;20025;-76
2023/05/30 11:29:31;;;;;;;2.58;1.30;;;;;;;;;;5035187;28;20115;-76
2023/05/30 11:31:57;;;;;;;5.13;1.00;;;;;;;;;;5033983;28;20033;-75
2023/05/30 11:34:24;;;;;;;0.98;0.88;;;;;;;;;;5038564;28;20038;-75
2023/05/30 11:36:50;;;;;;;11.90;1.52;;;;;;;;;;5046642;28;20076;-75
2023/05/30 11:39:19;;;;;;;2.97;0.98;;;;;;;;;;5039667;28;20045;-76
2023/05/30 11:41:45;;;;;;;2.88;1.10;;;;;;;;;;5045446;28;20047;-76
2023/05/30 11:44:11;;;;;;;1.58;1.08;;;;;;;;;;5033828;28;20033;-75
2023/05/30 11:46:37;;;;;;;3.08;1.10;;;;;;;;;;5036322;28;20298;-75
2023/05/30 11:49:06;;;;;;;0.93;0.77;;;;;;;;;;5031592;28;20029;-74
2023/05/30 11:51:33;;;;;;;1.10;0.60;;;;;;;;;;5044056;28;20036;-75
2023/05/30 11:53:59;;;;;;;4.45;0.90;;;;;;;;;;5045791;28;20163;-75
2023/05/30 11:56:31;;;;;;;2.40;0.95;;;;;;;;;;5046858;28;20039;-75
2023/05/30 11:58:57;;;;;;;2.28;0.90;;;;;;;;;;5038335;28;20365;-75
2023/05/30 12:01:23;;;;;;;2.13;1.02;;;;;;;;;;5043893;28;20021;-75
2023/05/30 12:03:49;;;;;;;3.05;1.10;;;;;;;;;;5034544;28;20025;-73
2023/05/30 12:06:15;;;;;;;3.03;0.88;;;;;;;;;;5045704;28;20068;-74
2023/05/30 12:08:48;;;;;;;1.63;1.02;;;;;;;;;;5038172;28;20129;-74
2023/05/30 12:11:14;;;;;;;3.05;0.98;;;;;;;;;;5040444;28;20130;-74
2023/05/30 12:13:40;;;;;;;1.20;0.75;;;;;;;;;;5042851;28;20021;-74
2023/05/30 12:16:07;;;;;;;2.10;1.20;;;;;;;;;;5039618;28;20028;-74
2023/05/30 12:18:36;;;;;;;1.55;1.33;;;;;;;;;;5032722;28;20824;-73
2023/05/30 12:21:38;;;;;;;1.27;0.88;;;;;;;;;;5040498;28;20075;-73
2023/05/30 12:24:08;;;;;;;1.67;0.85;;;;;;;;;;5026767;28;20087;-74
2023/05/30 12:26:33;;;;;;;1.80;1.10;;;;;;;;;;5069362;28;20392;-74
2023/05/30 12:29:06;;;;;;;3.15;0.80;;;;;;;;;;5058664;28;20025;-74
2023/05/30 12:31:33;;;;;;;3.72;1.45;;;;;;;;;;5035144;28;20036;-74
2023/05/30 12:34:01;;;;;;;1.70;0.98;;;;;;;;;;5049277;28;20484;-73
2023/05/30 12:36:27;;;;;;;1.75;1.02;;;;;;;;;;5038721;28;20488;-74
2023/05/30 12:39:08;;;;;;;1.30;0.90;;;;;;;;;;5048944;28;20083;-73
2023/05/30 12:41:40;;;;;;;3.08;0.98;;;;;;;;;;5029209;28;20568;-73
2023/05/30 12:44:07;;;;;;;1.60;0.85;;;;;;;;;;5033384;28;20027;-78
2023/05/30 12:46:36;;;;;;;3.78;1.00;;;;;;;;;;5040552;28;20053;-78
2023/05/30 12:49:02;;;;;;;1.63;0.80;;;;;;;;;;5040743;28;20017;-78
2023/05/30 12:51:28;;;;;;;1.77;0.63;;;;;;;;;;5048901;28;20033;-78
2023/05/30 12:53:57;;;;;;;2.05;0.90;;;;;;;;;;5048726;28;20036;-79
2023/05/30 12:56:23;;;;;;;0.60;0.50;;;;;;;;;;5048970;28;20472;-78
2023/05/30 12:58:49;;;;;;;1.30;0.80;;;;;;;;;;5045640;28;20141;-78
2023/05/30 13:01:15;;;;;;;0.85;0.77;;;;;;;;;;5048888;28;20033;-79
2023/05/30 13:03:41;;;;;;;1.75;0.70;;;;;;;;;;5048945;28;20025;-78
2023/05/30 13:06:18;;;;;;;1.77;0.98;;;;;;;;;;5050394;28;20399;-78
2023/05/30 13:08:44;;;;;;;2.15;0.98;;;;;;;;;;5043479;28;20124;-78
2023/05/30 13:11:11;;;;;;;0.60;0.57;;;;;;;;;;5048480;28;20434;-77
2023/05/30 13:13:37;;;;;;;1.27;0.80;;;;;;;;;;5048637;28;20017;-77
2023/05/30 13:16:03;;;;;;;2.03;0.75;;;;;;;;;;5048514;28;20487;-77
2023/05/30 13:18:28;;;;;;;1.02;0.60;;;;;;;;;;5040792;28;20051;-77
2023/05/30 13:20:54;;;;;;;0.80;0.80;;;;;;;;;;5033601;28;20208;-78
2023/05/30 13:23:21;;;;;;;0.88;0.70;;;;;;;;;;5048596;28;20071;-77
2023/05/30 13:25:47;;;;;;;2.55;0.70;;;;;;;;;;5048325;28;20020;-78
2023/05/30 13:28:13;;;;;;;0.73;0.65;;;;;;;;;;5047882;28;20086;-78
2023/05/30 13:30:39;;;;;;;0.93;0.85;;;;;;;;;;5040602;28;20032;-77
2023/05/30 13:33:08;;;;;;;0.80;0.80;;;;;;;;;;5048173;28;20033;-77
2023/05/30 13:35:34;;;;;;;0.63;0.60;;;;;;;;;;5047971;28;20021;-77
2023/05/30 13:38:00;;;;;;;0.35;0.35;;;;;;;;;;5047393;28;20709;-77
2023/05/30 13:40:26;;;;;;;1.38;0.60;;;;;;;;;;5047363;28;20396;-77
2023/05/30 13:42:52;;;;;;;0.47;0.47;;;;;;;;;;5042334;28;20014;-78
2023/05/30 13:45:20;;;;;;;1.50;0.80;;;;;;;;;;5032253;28;20640;-77
2023/05/30 13:47:46;;;;;;;1.38;1.13;;;;;;;;;;5048035;28;20081;-77
2023/05/30 13:50:12;;;;;;;1.60;0.82;;;;;;;;;;5047842;28;20040;-78
2023/05/30 13:52:38;;;;;;;0.70;0.63;;;;;;;;;;5047770;28;20021;-77
2023/05/30 13:55:05;;;;;;;0.60;0.60;;;;;;;;;;5042625;28;20094;-79
2023/05/30 13:57:31;;;;;;;2.17;1.33;;;;;;;;;;5048004;28;20461;-77
2023/05/30 13:59:57;;;;;;;0.70;0.70;;;;;;;;;;5047568;28;20021;-78
2023/05/30 14:02:23;;;;;;;2.33;0.77;;;;;;;;;;5061267;28;20467;-77
2023/05/30 14:04:49;;;;;;;2.45;0.77;;;;;;;;;;5053211;28;20511;-77
2023/05/30 14:07:15;;;;;;;0.70;0.50;;;;;;;;;;5037196;28;20462;-78
2023/05/30 14:09:41;;;;;;;1.40;0.85;;;;;;;;;;5045787;28;20807;-78
2023/05/30 14:12:08;;;;;;;1.80;1.00;;;;;;;;;;5048913;28;20044;-77
2023/05/30 14:14:34;;;;;;;0.60;0.50;;;;;;;;;;5051683;28;20017;-77
2023/05/30 14:17:03;;;;;;;0.77;0.65;;;;;;;;;;5047450;28;20108;-77
2023/05/30 14:19:29;;;;;;;0.75;0.60;;;;;;;;;;5039153;28;20502;-78
2023/05/30 14:21:56;;;;;;;3.22;0.50;;;;;;;;;;5051478;28;20017;-77
2023/05/30 14:24:22;;;;;;;0.90;0.70;;;;;;;;;;5052000;28;20116;-77
2023/05/30 14:26:48;;;;;;;1.38;0.80;;;;;;;;;;5051659;28;20112;-77
2023/05/30 14:29:14;;;;;;;0.65;0.65;;;;;;;;;;5039835;28;20486;-77
2023/05/30 14:31:40;;;;;;;0.63;0.60;;;;;;;;;;5051622;28;20028;-77
2023/05/30 14:34:07;;;;;;;0.40;0.40;;;;;;;;;;5051477;28;20033;-77
2023/05/30 14:36:33;;;;;;;0.65;0.65;;;;;;;;;;5051420;28;20028;-77
2023/05/30 14:38:59;;;;;;;0.80;0.60;;;;;;;;;;5047618;28;20033;-77
2023/05/30 14:41:25;;;;;;;0.95;0.60;;;;;;;;;;5040261;28;20862;-77
2023/05/30 14:43:51;;;;;;;0.40;0.40;;;;;;;;;;5037502;28;20087;-78
2023/05/30 14:46:17;;;;;;;0.60;0.60;;;;;;;;;;5062186;28;20040;-78
2023/05/30 14:48:46;;;;;;;0.93;0.65;;;;;;;;;;5049910;28;20017;-81
2023/05/30 14:51:12;;;;;;;1.40;0.77;;;;;;;;;;5051673;28;20029;-77